createdAt,value
2019-03-01T00:01:57.146Z,8.00
2019-03-01T00:04:43.825Z,8.00
2019-03-01T00:07:49.557Z,7.90
2019-03-01T00:10:57.120Z,7.90
2019-03-01T00:13:45.730Z,7.90
2019-03-01T00:16:25.043Z,7.90
2019-03-01T00:19:30.982Z,7.90
2019-03-01T00:22:17.676Z,7.90
2019-03-01T00:24:51.953Z,7.80
2019-03-01T00:27:39.962Z,7.70
2019-03-01T00:30:20.342Z,7.70
2019-03-01T00:33:08.480Z,7.70
2019-03-01T00:35:56.776Z,7.70
2019-03-01T00:38:37.473Z,7.70
2019-03-01T00:41:17.956Z,7.60
2019-03-01T00:44:04.920Z,7.60
2019-03-01T00:46:33.489Z,7.60
2019-03-01T00:49:02.091Z,7.60
2019-03-01T00:51:32.602Z,7.60
2019-03-01T00:54:00.906Z,7.60
2019-03-01T00:56:29.867Z,7.60
2019-03-01T00:58:58.825Z,7.60
2019-03-01T01:01:46.788Z,7.60
2019-03-01T01:04:15.458Z,7.60
2019-03-01T01:06:45.517Z,7.60
2019-03-01T01:09:15.803Z,7.60
2019-03-01T01:11:50.647Z,7.60
2019-03-01T01:14:19.334Z,7.60
2019-03-01T01:16:48.190Z,7.60
2019-03-01T01:19:17.064Z,7.60
2019-03-01T01:21:45.616Z,7.50
2019-03-01T01:24:14.260Z,7.50
2019-03-01T01:26:42.984Z,7.50
2019-03-01T01:29:11.559Z,7.60
2019-03-01T01:31:40.128Z,7.60
2019-03-01T01:34:08.808Z,7.60
2019-03-01T01:36:37.514Z,7.60
2019-03-01T01:39:08.172Z,7.50
2019-03-01T01:41:36.854Z,7.50
2019-03-01T01:44:05.659Z,7.50
2019-03-01T01:46:35.836Z,7.50
2019-03-01T01:49:04.595Z,7.50
2019-03-01T01:51:33.227Z,7.50
2019-03-01T01:54:01.870Z,7.50
2019-03-01T01:56:30.496Z,7.40
2019-03-01T01:59:00.322Z,7.40
2019-03-01T02:01:28.913Z,7.50
2019-03-01T02:03:57.654Z,7.40
2019-03-01T02:06:27.841Z,7.40
2019-03-01T02:08:56.606Z,7.40
2019-03-01T02:11:26.909Z,7.40
2019-03-01T02:13:55.555Z,7.40
2019-03-01T02:16:24.349Z,7.50
2019-03-01T02:18:57.751Z,7.50
2019-03-01T02:21:24.075Z,7.50
2019-03-01T02:23:52.658Z,7.40
2019-03-01T02:26:21.324Z,7.40
2019-03-01T02:28:50.240Z,7.40
2019-03-01T02:31:18.954Z,7.50
2019-03-01T02:33:47.610Z,7.50
2019-03-01T02:36:16.314Z,7.50
2019-03-01T02:38:44.961Z,7.50
2019-03-01T02:41:13.598Z,7.40
2019-03-01T02:43:42.153Z,7.40
2019-03-01T02:46:10.715Z,7.50
2019-03-01T02:48:39.303Z,7.40
2019-03-01T02:51:08.149Z,7.40
2019-03-01T02:53:36.877Z,7.30
2019-03-01T02:56:05.516Z,7.30
2019-03-01T02:58:35.625Z,7.30
2019-03-01T03:01:04.390Z,7.30
2019-03-01T03:03:33.065Z,7.40
2019-03-01T03:06:03.332Z,7.40
2019-03-01T03:08:31.894Z,7.40
2019-03-01T03:11:00.555Z,7.40
2019-03-01T03:13:29.109Z,7.40
2019-03-01T03:15:57.814Z,7.30
2019-03-01T03:18:26.406Z,7.30
2019-03-01T03:20:55.214Z,7.30
2019-03-01T03:23:23.850Z,7.30
2019-03-01T03:25:52.588Z,7.20
2019-03-01T03:28:21.555Z,7.30
2019-03-01T03:30:50.236Z,7.20
2019-03-01T03:33:18.892Z,7.20
2019-03-01T03:35:47.533Z,7.10
2019-03-01T03:38:16.097Z,7.10
2019-03-01T03:40:44.747Z,7.10
2019-03-01T03:43:13.747Z,7.10
2019-03-01T03:45:42.285Z,7.10
2019-03-01T03:48:12.739Z,7.10
2019-03-01T03:50:41.300Z,7.10
2019-03-01T03:53:12.772Z,7.10
2019-03-01T03:55:41.506Z,7.00
2019-03-01T03:58:10.154Z,7.00
2019-03-01T04:00:38.960Z,7.00
2019-03-01T04:03:07.690Z,7.00
2019-03-01T04:05:36.319Z,7.00
2019-03-01T04:08:05.228Z,7.10
2019-03-01T04:10:34.834Z,7.10
2019-03-01T04:13:03.427Z,7.10
2019-03-01T04:15:32.190Z,7.10
2019-03-01T04:18:00.918Z,7.20
2019-03-01T04:20:29.626Z,7.20
2019-03-01T04:22:58.351Z,7.20
2019-03-01T04:25:26.991Z,7.20
2019-03-01T04:27:55.627Z,7.20
2019-03-01T04:30:24.256Z,7.30
2019-03-01T04:32:52.959Z,7.30
2019-03-01T04:35:22.071Z,7.20
2019-03-01T04:37:50.785Z,7.20
2019-03-01T04:40:19.806Z,7.20
2019-03-01T04:42:48.452Z,7.20
2019-03-01T04:45:18.040Z,7.20
2019-03-01T04:47:46.704Z,7.30
2019-03-01T04:50:15.433Z,7.30
2019-03-01T04:52:45.525Z,7.30
2019-03-01T04:55:24.265Z,7.30
2019-03-01T04:57:52.914Z,7.30
2019-03-01T05:00:25.380Z,7.30
2019-03-01T05:02:54.189Z,7.30
2019-03-01T05:05:22.996Z,7.30
2019-03-01T05:07:51.622Z,7.30
2019-03-01T05:10:20.275Z,7.20
2019-03-01T05:12:50.440Z,7.20
2019-03-01T05:15:21.140Z,7.20
2019-03-01T05:17:51.303Z,7.30
2019-03-01T05:20:20.010Z,7.30
2019-03-01T05:22:48.714Z,7.30
2019-03-01T05:25:18.799Z,7.30
2019-03-01T05:27:47.365Z,7.30
2019-03-01T05:30:17.659Z,7.30
2019-03-01T05:32:47.970Z,7.20
2019-03-01T05:35:17.363Z,7.20
2019-03-01T05:37:47.378Z,7.20
2019-03-01T05:40:23.280Z,7.20
2019-03-01T05:42:51.827Z,7.30
2019-03-01T05:45:31.496Z,7.30
2019-03-01T05:48:00.058Z,7.30
2019-03-01T05:50:36.066Z,7.30
2019-03-01T05:53:24.006Z,7.20
2019-03-01T05:55:53.103Z,7.20
2019-03-01T05:58:31.268Z,7.20
2019-03-01T06:01:05.684Z,7.20
2019-03-01T06:03:46.395Z,7.20
2019-03-01T06:06:24.184Z,7.20
2019-03-01T06:09:18.882Z,7.10
2019-03-01T06:11:56.429Z,7.20
2019-03-01T06:14:46.283Z,7.20
2019-03-01T06:17:37.468Z,7.20
2019-03-01T06:20:16.267Z,7.20
2019-03-01T06:22:47.896Z,7.10
2019-03-01T06:25:19.536Z,7.10
2019-03-01T06:28:09.127Z,7.20
2019-03-01T06:31:01.937Z,7.20
2019-03-01T06:34:08.714Z,7.10
2019-03-01T06:36:52.187Z,7.20
2019-03-01T06:40:00.303Z,7.20
2019-03-01T06:42:47.017Z,7.20
2019-03-01T06:45:49.130Z,7.20
2019-03-01T06:48:21.035Z,7.20
2019-03-01T06:50:51.378Z,7.20
2019-03-01T06:53:20.066Z,7.30
2019-03-01T06:55:48.777Z,7.30
2019-03-01T06:58:20.099Z,7.30
2019-03-01T07:00:50.673Z,7.20
2019-03-01T07:03:19.694Z,7.20
2019-03-01T07:05:48.399Z,7.20
2019-03-01T07:08:17.001Z,7.20
2019-03-01T07:10:45.636Z,7.20
2019-03-01T07:13:14.347Z,7.20
2019-03-01T07:15:42.939Z,7.20
2019-03-01T07:18:12.453Z,7.20
2019-03-01T07:20:41.031Z,7.20
2019-03-01T07:23:09.637Z,7.30
2019-03-01T07:25:38.275Z,7.30
2019-03-01T07:28:08.747Z,7.40
2019-03-01T07:30:40.608Z,7.40
2019-03-01T07:33:09.671Z,7.40
2019-03-01T07:35:38.219Z,7.40
2019-03-01T07:38:06.921Z,7.40
2019-03-01T07:40:35.488Z,7.30
2019-03-01T07:43:07.799Z,7.30
2019-03-01T07:45:36.705Z,7.30
2019-03-01T07:48:05.669Z,7.30
2019-03-01T07:50:56.623Z,7.30
2019-03-01T07:53:25.498Z,7.30
2019-03-01T07:55:54.276Z,7.40
2019-03-01T07:58:25.500Z,7.40
2019-03-01T08:00:54.744Z,7.40
2019-03-01T08:03:23.964Z,7.40
2019-03-01T08:05:52.600Z,7.40
2019-03-01T08:08:27.774Z,7.50
2019-03-01T08:10:57.298Z,7.60
2019-03-01T08:13:28.183Z,7.60
2019-03-01T08:15:57.385Z,7.70
2019-03-01T08:18:29.119Z,7.60
2019-03-01T08:20:57.817Z,7.60
2019-03-01T08:23:26.656Z,7.60
2019-03-01T08:25:58.932Z,7.60
2019-03-01T08:28:27.564Z,7.70
2019-03-01T08:30:59.173Z,7.70
2019-03-01T08:33:32.383Z,7.60
2019-03-01T08:35:58.822Z,7.60
2019-03-01T08:38:28.953Z,7.60
2019-03-01T08:41:00.244Z,7.60
2019-03-01T08:43:28.625Z,7.60
2019-03-01T08:45:57.272Z,7.60
2019-03-01T08:48:27.134Z,7.60
2019-03-01T08:50:57.363Z,7.70
2019-03-01T08:53:27.092Z,7.70
2019-03-01T08:55:55.773Z,7.70
2019-03-01T08:58:27.877Z,7.70
2019-03-01T09:00:59.918Z,7.70
2019-03-01T09:04:00.092Z,7.80
2019-03-01T09:06:29.256Z,7.80
2019-03-01T09:08:57.910Z,7.90
2019-03-01T09:11:30.499Z,7.90
2019-03-01T09:13:58.655Z,7.90
2019-03-01T09:16:27.854Z,7.90
2019-03-01T09:18:56.463Z,7.90
2019-03-01T09:21:25.208Z,8.00
2019-03-01T09:23:55.003Z,8.00
2019-03-01T09:26:28.378Z,8.00
2019-03-01T09:28:58.660Z,8.00
2019-03-01T09:31:27.292Z,8.10
2019-03-01T09:33:56.569Z,8.20
2019-03-01T09:36:27.923Z,8.20
2019-03-01T09:38:59.301Z,8.30
2019-03-01T09:41:36.627Z,8.30
2019-03-01T09:44:07.233Z,8.30
2019-03-01T09:46:36.156Z,8.30
2019-03-01T09:49:05.375Z,8.30
2019-03-01T09:51:34.181Z,8.40
2019-03-01T09:54:13.182Z,8.40
2019-03-01T09:56:33.242Z,8.40
2019-03-01T09:59:13.240Z,8.40
2019-03-01T10:01:45.180Z,8.40
2019-03-01T10:04:13.946Z,8.50
2019-03-01T10:06:52.090Z,8.60
2019-03-01T10:09:21.083Z,8.60
2019-03-01T10:11:49.796Z,8.60
2019-03-01T10:14:21.244Z,8.70
2019-03-01T10:16:57.355Z,8.80
2019-03-01T10:19:29.016Z,8.80
2019-03-01T10:21:59.595Z,8.90
2019-03-01T10:24:28.370Z,9.00
2019-03-01T10:26:57.116Z,8.90
2019-03-01T10:29:27.212Z,8.90
2019-03-01T10:31:55.899Z,8.80
2019-03-01T10:34:27.287Z,8.80
2019-03-01T10:36:56.055Z,8.70
2019-03-01T10:39:24.705Z,8.70
2019-03-01T10:41:53.403Z,8.60
2019-03-01T10:44:22.087Z,8.60
2019-03-01T10:46:50.754Z,8.60
2019-03-01T10:49:19.403Z,8.60
2019-03-01T10:51:48.281Z,8.60
2019-03-01T10:54:21.218Z,8.70
2019-03-01T10:56:49.921Z,8.70
2019-03-01T10:59:18.540Z,8.80
2019-03-01T11:01:47.173Z,8.80
2019-03-01T11:04:16.205Z,8.90
2019-03-01T11:06:45.341Z,9.00
2019-03-01T11:09:15.805Z,9.00
2019-03-01T11:11:44.602Z,9.00
2019-03-01T11:14:15.623Z,9.10
2019-03-01T11:16:44.325Z,9.20
2019-03-01T11:19:13.148Z,9.30
2019-03-01T11:21:41.797Z,9.60
2019-03-01T11:24:10.871Z,10.00
2019-03-01T11:29:29.860Z,10.20
2019-03-01T11:31:58.643Z,10.10
2019-03-01T11:34:27.277Z,10.10
2019-03-01T11:36:56.326Z,10.10
2019-03-01T11:39:27.032Z,10.10
2019-03-01T11:41:55.719Z,10.20
2019-03-01T11:44:26.059Z,10.20
2019-03-01T11:46:54.671Z,10.30
2019-03-01T11:49:23.344Z,10.20
2019-03-01T11:51:53.567Z,10.20
2019-03-01T11:54:37.810Z,10.10
2019-03-01T11:57:06.840Z,10.00
2019-03-01T11:59:35.721Z,10.00
2019-03-01T12:02:05.517Z,10.00
2019-03-01T12:04:34.107Z,9.90
2019-03-01T12:07:06.872Z,9.80
2019-03-01T12:09:33.088Z,9.70
2019-03-01T12:12:02.631Z,9.70
2019-03-01T12:14:31.257Z,9.60
2019-03-01T12:17:00.247Z,9.50
2019-03-01T12:19:29.603Z,9.50
2019-03-01T12:21:58.304Z,9.40
2019-03-01T12:24:27.252Z,9.40
2019-03-01T12:26:56.230Z,9.40
2019-03-01T12:29:25.380Z,9.40
2019-03-01T12:31:55.394Z,9.30
2019-03-01T12:34:24.253Z,9.30
2019-03-01T12:36:55.989Z,9.20
2019-03-01T12:39:25.847Z,9.20
2019-03-01T12:41:57.601Z,9.20
2019-03-01T12:44:26.194Z,9.20
2019-03-01T12:46:57.706Z,9.20
2019-03-01T12:49:29.557Z,9.10
2019-03-01T12:51:58.179Z,9.10
2019-03-01T12:54:28.256Z,9.10
2019-03-01T12:56:59.868Z,9.10
2019-03-01T12:59:30.810Z,9.00
2019-03-01T13:01:59.693Z,9.00
2019-03-01T13:04:28.320Z,9.00
2019-03-01T13:06:56.960Z,8.90
2019-03-01T13:09:28.493Z,8.90
2019-03-01T13:11:57.698Z,8.90
2019-03-01T13:14:26.678Z,8.90
2019-03-01T13:16:55.320Z,8.90
2019-03-01T13:19:26.115Z,9.10
2019-03-01T13:21:54.286Z,9.20
2019-03-01T13:24:22.924Z,9.20
2019-03-01T13:26:57.112Z,9.30
2019-03-01T13:29:25.840Z,9.40
2019-03-01T13:31:56.387Z,9.40
2019-03-01T13:34:26.982Z,9.30
2019-03-01T13:36:55.424Z,9.30
2019-03-01T13:39:24.201Z,9.20
2019-03-01T13:41:53.256Z,9.20
2019-03-01T13:44:21.897Z,9.20
2019-03-01T13:46:50.511Z,9.20
2019-03-01T13:49:20.750Z,9.20
2019-03-01T13:52:08.737Z,9.10
2019-03-01T13:54:37.734Z,9.10
2019-03-01T13:57:08.402Z,9.10
2019-03-01T13:59:37.554Z,9.20
2019-03-01T14:02:11.752Z,9.20
2019-03-01T14:04:47.618Z,9.20
2019-03-01T14:07:18.846Z,9.20
2019-03-01T14:09:50.579Z,9.10
2019-03-01T14:12:20.870Z,9.10
2019-03-01T14:15:02.699Z,9.10
2019-03-01T14:17:30.856Z,9.10
2019-03-01T14:19:59.542Z,9.10
2019-03-01T14:22:28.713Z,9.10
2019-03-01T14:24:57.751Z,9.10
2019-03-01T14:27:29.565Z,9.10
2019-03-01T14:30:00.237Z,9.00
2019-03-01T14:32:29.244Z,9.00
2019-03-01T14:34:58.269Z,9.00
2019-03-01T14:37:27.947Z,8.90
2019-03-01T14:39:56.546Z,8.90
2019-03-01T14:42:25.367Z,8.90
2019-03-01T14:44:58.689Z,8.80
2019-03-01T14:47:32.717Z,8.80
2019-03-01T14:50:03.095Z,8.70
2019-03-01T14:52:34.877Z,8.70
2019-03-01T14:55:10.577Z,8.60
2019-03-01T14:57:43.077Z,8.60
2019-03-01T15:00:20.554Z,8.60
2019-03-01T15:02:58.307Z,8.60
2019-03-01T15:05:29.058Z,8.60
2019-03-01T15:08:03.087Z,8.50
2019-03-01T15:10:36.369Z,8.50
2019-03-01T15:13:07.698Z,8.40
2019-03-01T15:15:36.633Z,8.30
2019-03-01T15:18:08.166Z,8.30
2019-03-01T15:20:42.519Z,8.20
2019-03-01T15:23:11.470Z,8.20
2019-03-01T15:25:48.749Z,8.10
2019-03-01T15:28:17.852Z,8.00
2019-03-01T15:30:47.492Z,8.00
2019-03-01T15:33:19.220Z,7.90
2019-03-01T15:35:56.831Z,7.90
2019-03-01T15:38:27.745Z,7.90
2019-03-01T15:40:59.287Z,7.80
2019-03-01T15:43:30.022Z,7.80
2019-03-01T15:45:58.795Z,7.60
2019-03-01T15:48:27.448Z,7.60
2019-03-01T15:50:59.149Z,7.50
2019-03-01T15:53:26.899Z,7.50
2019-03-01T15:55:55.533Z,7.50
2019-03-01T15:58:24.414Z,7.40
2019-03-01T16:00:53.037Z,7.40
2019-03-01T16:03:26.576Z,7.30
2019-03-01T16:05:55.256Z,7.20
2019-03-01T16:08:25.637Z,7.20
2019-03-01T16:10:54.286Z,7.20
2019-03-01T16:13:23.147Z,7.20
2019-03-01T16:15:55.220Z,7.10
2019-03-01T16:18:25.869Z,7.10
2019-03-01T16:21:01.994Z,7.00
2019-03-01T16:23:31.405Z,7.00
2019-03-01T16:26:00.303Z,6.90
2019-03-01T16:28:39.678Z,6.80
2019-03-01T16:31:10.366Z,6.80
2019-03-01T16:33:40.186Z,6.80
2019-03-01T16:36:10.494Z,6.70
2019-03-01T16:38:41.165Z,6.70
2019-03-01T16:41:12.544Z,6.70
2019-03-01T16:43:41.178Z,6.60
2019-03-01T16:46:09.920Z,6.60
2019-03-01T16:48:39.112Z,6.50
2019-03-01T16:51:07.925Z,6.50
2019-03-01T16:53:40.169Z,6.50
2019-03-01T16:56:07.156Z,6.40
2019-03-01T16:58:35.812Z,6.40
2019-03-01T17:01:05.174Z,6.40
2019-03-01T17:03:33.943Z,6.30
2019-03-01T17:06:06.627Z,6.30
2019-03-01T17:08:36.347Z,6.30
2019-03-01T17:11:08.815Z,6.30
2019-03-01T17:13:37.448Z,6.20
2019-03-01T17:16:06.355Z,6.20
2019-03-01T17:18:38.102Z,6.20
2019-03-01T17:21:08.667Z,6.10
2019-03-01T17:23:39.242Z,6.10
2019-03-01T17:26:08.858Z,6.10
2019-03-01T17:28:37.857Z,6.10
2019-03-01T17:31:13.632Z,6.10
2019-03-01T17:33:48.836Z,6.10
2019-03-01T17:36:17.047Z,6.00
2019-03-01T17:38:46.660Z,6.00
2019-03-01T17:41:18.234Z,6.00
2019-03-01T17:43:49.596Z,6.00
2019-03-01T17:46:18.240Z,5.90
2019-03-01T17:48:50.862Z,5.90
2019-03-01T17:51:21.021Z,5.90
2019-03-01T17:53:52.646Z,5.90
2019-03-01T17:56:23.068Z,5.80
2019-03-01T17:58:56.085Z,5.80
2019-03-01T18:01:27.816Z,5.80
2019-03-01T18:03:58.085Z,5.80
2019-03-01T18:06:37.803Z,5.80
2019-03-01T18:09:09.829Z,5.80
2019-03-01T18:11:40.691Z,5.70
2019-03-01T18:14:33.758Z,5.80
2019-03-01T18:17:04.839Z,5.70
2019-03-01T18:19:36.384Z,5.80
2019-03-01T18:22:05.288Z,5.80
2019-03-01T18:24:37.159Z,5.80
2019-03-01T18:27:12.111Z,5.70
2019-03-01T18:29:42.387Z,5.70
2019-03-01T18:32:11.190Z,5.70
2019-03-01T18:34:40.850Z,5.70
2019-03-01T18:37:19.566Z,5.60
2019-03-01T18:39:43.441Z,5.60
2019-03-01T18:42:13.244Z,5.70
2019-03-01T18:44:42.041Z,5.60
2019-03-01T18:47:13.851Z,5.50
2019-03-01T18:49:42.831Z,5.50
2019-03-01T18:52:14.473Z,5.50
2019-03-01T18:54:44.534Z,5.50
2019-03-01T18:57:13.806Z,5.50
2019-03-01T18:59:42.429Z,5.50
2019-03-01T19:02:14.261Z,5.50
2019-03-01T19:04:45.911Z,5.50
2019-03-01T19:07:14.467Z,5.40
2019-03-01T19:09:45.109Z,5.30
2019-03-01T19:12:17.419Z,5.30
2019-03-01T19:14:49.067Z,5.30
2019-03-01T19:17:25.028Z,5.20
2019-03-01T19:19:53.876Z,5.20
2019-03-01T19:22:29.377Z,5.20
2019-03-01T19:24:58.104Z,5.20
2019-03-01T19:27:32.267Z,5.30
2019-03-01T19:30:13.556Z,5.30
2019-03-01T19:32:42.995Z,5.20
2019-03-01T19:35:17.124Z,5.20
2019-03-01T19:37:49.333Z,5.20
2019-03-01T19:40:21.310Z,5.20
2019-03-01T19:42:53.992Z,5.20
2019-03-01T19:45:23.378Z,5.20
2019-03-01T19:47:52.206Z,5.20
2019-03-01T19:50:27.855Z,5.20
2019-03-01T19:52:56.919Z,5.20
2019-03-01T19:55:25.937Z,5.20
2019-03-01T19:58:01.741Z,5.10
2019-03-01T20:00:33.687Z,5.00
2019-03-01T20:03:06.631Z,5.00
2019-03-01T20:05:39.230Z,5.00
2019-03-01T20:08:07.978Z,5.00
2019-03-01T20:10:39.817Z,5.00
2019-03-01T20:13:08.564Z,4.90
2019-03-01T20:15:37.284Z,4.90
2019-03-01T20:18:09.834Z,5.00
2019-03-01T20:20:44.048Z,5.00
2019-03-01T20:23:14.057Z,4.90
2019-03-01T20:25:54.816Z,4.90
2019-03-01T20:28:32.280Z,4.90
2019-03-01T20:31:06.930Z,4.90
2019-03-01T20:33:40.486Z,4.90
2019-03-01T20:36:13.727Z,4.80
2019-03-01T20:38:45.224Z,4.80
2019-03-01T20:41:15.015Z,4.80
2019-03-01T20:43:43.951Z,4.80
2019-03-01T20:46:17.302Z,4.80
2019-03-01T20:48:47.697Z,4.80
2019-03-01T20:51:16.500Z,4.80
2019-03-01T20:53:45.745Z,4.80
2019-03-01T20:56:16.994Z,4.80
2019-03-01T20:58:47.797Z,4.70
2019-03-01T21:01:19.383Z,4.70
2019-03-01T21:03:47.320Z,4.70
2019-03-01T21:06:21.234Z,4.70
2019-03-01T21:08:53.012Z,4.60
2019-03-01T21:11:21.743Z,4.60
2019-03-01T21:13:52.251Z,4.60
2019-03-01T21:16:20.959Z,4.50
2019-03-01T21:18:52.365Z,4.50
2019-03-01T21:21:25.515Z,4.50
2019-03-01T21:23:53.250Z,4.50
2019-03-01T21:26:24.093Z,4.50
2019-03-01T21:28:55.939Z,4.50
2019-03-01T21:31:24.651Z,4.60
2019-03-01T21:33:59.417Z,4.60
2019-03-01T21:36:28.951Z,4.50
2019-03-01T21:38:57.668Z,4.50
2019-03-01T21:41:29.245Z,4.50
2019-03-01T21:44:10.224Z,4.40
2019-03-01T21:46:36.258Z,4.50
2019-03-01T21:49:05.026Z,4.50
2019-03-01T21:51:34.949Z,4.40
2019-03-01T21:54:05.453Z,4.40
2019-03-01T21:56:34.202Z,4.40
2019-03-01T21:59:05.153Z,4.40
2019-03-01T22:01:37.614Z,4.40
2019-03-01T22:04:10.075Z,4.40
2019-03-01T22:06:39.293Z,4.40
2019-03-01T22:09:09.774Z,4.40
2019-03-01T22:11:38.455Z,4.40
2019-03-01T22:14:14.153Z,4.40
2019-03-01T22:16:41.775Z,4.30
2019-03-01T22:19:14.867Z,4.30
2019-03-01T22:21:43.430Z,4.30
2019-03-01T22:24:12.280Z,4.30
2019-03-01T22:26:40.773Z,4.20
2019-03-01T22:29:12.093Z,4.20
2019-03-01T22:31:39.820Z,4.20
2019-03-01T22:34:08.435Z,4.20
2019-03-01T22:36:39.443Z,4.20
2019-03-01T22:39:17.580Z,4.20
2019-03-01T22:41:46.240Z,4.20
2019-03-01T22:44:15.236Z,4.20
2019-03-01T22:46:43.869Z,4.20
2019-03-01T22:49:23.684Z,4.10
2019-03-01T22:51:52.907Z,4.20
2019-03-01T22:54:22.630Z,4.10
2019-03-01T22:56:51.210Z,4.20
2019-03-01T22:59:26.057Z,4.10
2019-03-01T23:01:55.338Z,4.10
2019-03-01T23:04:29.380Z,4.10
2019-03-01T23:06:57.326Z,4.10
2019-03-01T23:09:29.008Z,4.10
2019-03-01T23:11:57.726Z,4.10
2019-03-01T23:14:27.393Z,4.10
2019-03-01T23:16:57.382Z,4.10
2019-03-01T23:19:27.770Z,4.00
2019-03-01T23:21:56.461Z,4.10
2019-03-01T23:24:25.097Z,4.00
2019-03-01T23:26:58.691Z,4.00
2019-03-01T23:29:29.522Z,4.00
2019-03-01T23:31:58.103Z,4.00
2019-03-01T23:34:27.028Z,4.00
2019-03-01T23:36:55.629Z,4.00
2019-03-01T23:39:24.610Z,3.90
2019-03-01T23:41:57.254Z,4.00
2019-03-01T23:44:26.003Z,3.90
2019-03-01T23:46:54.895Z,3.90
2019-03-01T23:49:24.058Z,4.00
2019-03-01T23:51:53.134Z,3.90
2019-03-01T23:54:27.528Z,3.90
2019-03-01T23:56:56.182Z,3.90
2019-03-01T23:59:26.684Z,3.90
